sensor_id;sensor_type;location;lat;lon;timestamp;temperature;humidity
63960;DHT22;50136;51.374;0.096;2022-12-07T00:03:11;5.40;99.90
63960;DHT22;50136;51.374;0.096;2022-12-07T00:13:13;5.30;99.90
63960;DHT22;50136;51.374;0.096;2022-12-07T00:23:16;5.40;99.90
63960;DHT22;50136;51.374;0.096;2022-12-07T00:33:18;5.30;99.90
63960;DHT22;50136;51.374;0.096;2022-12-07T00:43:22;5.20;99.90
63960;DHT22;50136;51.374;0.096;2022-12-07T00:53:24;5.30;99.90
63960;DHT22;50136;51.374;0.096;2022-12-07T01:03:27;4.90;99.90
63960;DHT22;50136;51.374;0.096;2022-12-07T01:13:30;4.90;99.90
63960;DHT22;50136;51.374;0.096;2022-12-07T01:23:34;4.60;99.90
63960;DHT22;50136;51.374;0.096;2022-12-07T01:33:38;4.60;99.90
63960;DHT22;50136;51.374;0.096;2022-12-07T01:44:10;4.40;99.90
63960;DHT22;50136;51.374;0.096;2022-12-07T01:54:13;4.30;99.90
63960;DHT22;50136;51.374;0.096;2022-12-07T02:04:19;4.10;99.90
63960;DHT22;50136;51.374;0.096;2022-12-07T02:14:21;4.30;99.90
63960;DHT22;50136;51.374;0.096;2022-12-07T02:24:44;4.50;99.90
63960;DHT22;50136;51.374;0.096;2022-12-07T02:34:50;4.30;99.90
63960;DHT22;50136;51.374;0.096;2022-12-07T02:44:53;4.30;99.90
63960;DHT22;50136;51.374;0.096;2022-12-07T02:54:56;4.20;99.90
63960;DHT22;50136;51.374;0.096;2022-12-07T03:05:09;4.30;99.90
63960;DHT22;50136;51.374;0.096;2022-12-07T03:15:20;4.20;99.90
63960;DHT22;50136;51.374;0.096;2022-12-07T03:25:26;4.30;99.90
63960;DHT22;50136;51.374;0.096;2022-12-07T03:35:33;4.10;99.90
63960;DHT22;50136;51.374;0.096;2022-12-07T03:45:40;4.20;99.90
63960;DHT22;50136;51.374;0.096;2022-12-07T03:55:45;4.40;99.90
63960;DHT22;50136;51.374;0.096;2022-12-07T04:05:48;4.50;99.90
63960;DHT22;50136;51.374;0.096;2022-12-07T04:15:51;4.50;99.90
63960;DHT22;50136;51.374;0.096;2022-12-07T04:25:53;4.50;99.90
63960;DHT22;50136;51.374;0.096;2022-12-07T04:35:56;4.40;99.90
63960;DHT22;50136;51.374;0.096;2022-12-07T04:45:58;4.60;99.90
63960;DHT22;50136;51.374;0.096;2022-12-07T04:56:02;4.30;99.90
63960;DHT22;50136;51.374;0.096;2022-12-07T05:06:04;4.30;99.90
63960;DHT22;50136;51.374;0.096;2022-12-07T05:16:15;4.40;99.90
63960;DHT22;50136;51.374;0.096;2022-12-07T05:26:18;4.20;99.90
63960;DHT22;50136;51.374;0.096;2022-12-07T05:36:21;4.40;99.90
63960;DHT22;50136;51.374;0.096;2022-12-07T05:46:23;4.40;99.90
63960;DHT22;50136;51.374;0.096;2022-12-07T05:56:27;4.30;99.90
63960;DHT22;50136;51.374;0.096;2022-12-07T06:06:29;4.40;99.90
63960;DHT22;50136;51.374;0.096;2022-12-07T06:16:32;4.60;99.90
63960;DHT22;50136;51.374;0.096;2022-12-07T06:26:34;4.70;99.90
63960;DHT22;50136;51.374;0.096;2022-12-07T06:36:38;4.60;99.90
63960;DHT22;50136;51.374;0.096;2022-12-07T06:46:40;4.50;99.90
63960;DHT22;50136;51.374;0.096;2022-12-07T06:56:43;4.60;99.90
63960;DHT22;50136;51.374;0.096;2022-12-07T07:06:45;4.60;99.90
63960;DHT22;50136;51.374;0.096;2022-12-07T07:16:48;4.60;99.90
63960;DHT22;50136;51.374;0.096;2022-12-07T07:26:50;4.50;99.90
63960;DHT22;50136;51.374;0.096;2022-12-07T07:36:54;4.60;99.90
63960;DHT22;50136;51.374;0.096;2022-12-07T07:46:56;4.50;99.90
63960;DHT22;50136;51.374;0.096;2022-12-07T07:56:59;4.50;99.90
63960;DHT22;50136;51.374;0.096;2022-12-07T08:07:01;4.50;99.90
63960;DHT22;50136;51.374;0.096;2022-12-07T08:17:04;4.50;99.90
63960;DHT22;50136;51.374;0.096;2022-12-07T08:27:06;4.60;99.90
63960;DHT22;50136;51.374;0.096;2022-12-07T08:37:09;4.60;99.90
63960;DHT22;50136;51.374;0.096;2022-12-07T08:47:11;4.40;99.90
63960;DHT22;50136;51.374;0.096;2022-12-07T08:57:15;4.60;99.90
63960;DHT22;50136;51.374;0.096;2022-12-07T09:07:17;4.70;99.90
63960;DHT22;50136;51.374;0.096;2022-12-07T09:17:20;4.70;99.90
63960;DHT22;50136;51.374;0.096;2022-12-07T09:27:22;4.60;99.90
63960;DHT22;50136;51.374;0.096;2022-12-07T09:37:26;4.30;99.90
63960;DHT22;50136;51.374;0.096;2022-12-07T09:47:30;4.20;99.90
63960;DHT22;50136;51.374;0.096;2022-12-07T09:57:34;4.20;99.90
63960;DHT22;50136;51.374;0.096;2022-12-07T10:07:36;4.40;99.90
63960;DHT22;50136;51.374;0.096;2022-12-07T10:17:40;4.70;99.90
63960;DHT22;50136;51.374;0.096;2022-12-07T10:27:43;4.50;99.90
63960;DHT22;50136;51.374;0.096;2022-12-07T10:37:46;4.50;99.90
63960;DHT22;50136;51.374;0.096;2022-12-07T10:47:51;4.80;99.90
63960;DHT22;50136;51.374;0.096;2022-12-07T10:58:17;4.60;99.90
63960;DHT22;50136;51.374;0.096;2022-12-07T11:08:44;4.60;99.90
63960;DHT22;50136;51.374;0.096;2022-12-07T11:18:58;4.90;99.90
63960;DHT22;50136;51.374;0.096;2022-12-07T11:29:20;4.90;99.90
63960;DHT22;50136;51.374;0.096;2022-12-07T11:39:30;5.10;99.90
63960;DHT22;50136;51.374;0.096;2022-12-07T11:49:41;5.00;99.90
63960;DHT22;50136;51.374;0.096;2022-12-07T11:59:48;5.20;99.90
63960;DHT22;50136;51.374;0.096;2022-12-07T12:09:54;5.10;99.90
63960;DHT22;50136;51.374;0.096;2022-12-07T12:20:06;5.40;99.90
63960;DHT22;50136;51.374;0.096;2022-12-07T12:30:27;5.40;99.90
63960;DHT22;50136;51.374;0.096;2022-12-07T12:40:42;5.20;99.90
63960;DHT22;50136;51.374;0.096;2022-12-07T12:51:37;5.20;99.90
63960;DHT22;50136;51.374;0.096;2022-12-07T13:01:41;5.20;99.90
63960;DHT22;50136;51.374;0.096;2022-12-07T13:11:45;5.30;99.90
63960;DHT22;50136;51.374;0.096;2022-12-07T13:21:47;5.20;99.90
63960;DHT22;50136;51.374;0.096;2022-12-07T13:31:52;5.60;99.90
63960;DHT22;50136;51.374;0.096;2022-12-07T13:41:57;6.00;99.90
63960;DHT22;50136;51.374;0.096;2022-12-07T13:52:14;5.90;99.90
63960;DHT22;50136;51.374;0.096;2022-12-07T14:02:21;5.70;99.90
63960;DHT22;50136;51.374;0.096;2022-12-07T14:12:26;5.60;99.90
63960;DHT22;50136;51.374;0.096;2022-12-07T14:22:31;5.90;99.90
63960;DHT22;50136;51.374;0.096;2022-12-07T14:32:36;5.90;99.90
63960;DHT22;50136;51.374;0.096;2022-12-07T14:42:39;5.90;99.90
63960;DHT22;50136;51.374;0.096;2022-12-07T14:52:46;6.00;99.90
63960;DHT22;50136;51.374;0.096;2022-12-07T15:03:09;5.70;99.90
63960;DHT22;50136;51.374;0.096;2022-12-07T15:13:12;5.70;99.90
63960;DHT22;50136;51.374;0.096;2022-12-07T15:23:14;5.60;99.90
63960;DHT22;50136;51.374;0.096;2022-12-07T15:33:18;5.50;99.90
63960;DHT22;50136;51.374;0.096;2022-12-07T15:43:19;5.30;99.90
63960;DHT22;50136;51.374;0.096;2022-12-07T15:53:23;5.00;99.90
63960;DHT22;50136;51.374;0.096;2022-12-07T16:03:26;5.00;99.90
63960;DHT22;50136;51.374;0.096;2022-12-07T16:13:29;4.90;99.90
63960;DHT22;50136;51.374;0.096;2022-12-07T16:23:31;4.70;99.90
63960;DHT22;50136;51.374;0.096;2022-12-07T16:33:36;4.50;99.90
63960;DHT22;50136;51.374;0.096;2022-12-07T16:43:38;4.40;99.90
63960;DHT22;50136;51.374;0.096;2022-12-07T16:53:42;4.30;99.90
63960;DHT22;50136;51.374;0.096;2022-12-07T17:03:44;4.30;99.90
63960;DHT22;50136;51.374;0.096;2022-12-07T17:13:48;4.20;99.90
63960;DHT22;50136;51.374;0.096;2022-12-07T17:23:50;4.20;99.90
63960;DHT22;50136;51.374;0.096;2022-12-07T17:33:54;4.00;99.90
63960;DHT22;50136;51.374;0.096;2022-12-07T17:43:56;3.70;99.90
63960;DHT22;50136;51.374;0.096;2022-12-07T17:54:06;3.60;99.90
63960;DHT22;50136;51.374;0.096;2022-12-07T18:04:08;3.60;99.90
63960;DHT22;50136;51.374;0.096;2022-12-07T18:14:11;3.50;99.90
63960;DHT22;50136;51.374;0.096;2022-12-07T18:24:15;4.10;99.90
63960;DHT22;50136;51.374;0.096;2022-12-07T18:34:18;3.50;99.90
63960;DHT22;50136;51.374;0.096;2022-12-07T18:44:20;3.20;99.90
63960;DHT22;50136;51.374;0.096;2022-12-07T18:54:24;3.00;99.90
63960;DHT22;50136;51.374;0.096;2022-12-07T19:04:26;2.90;99.90
63960;DHT22;50136;51.374;0.096;2022-12-07T19:14:31;2.70;99.90
63960;DHT22;50136;51.374;0.096;2022-12-07T19:24:33;2.60;99.90
63960;DHT22;50136;51.374;0.096;2022-12-07T19:34:54;2.60;99.90
63960;DHT22;50136;51.374;0.096;2022-12-07T19:44:56;2.40;99.90
63960;DHT22;50136;51.374;0.096;2022-12-07T19:54:59;2.40;99.90
63960;DHT22;50136;51.374;0.096;2022-12-07T20:05:01;2.20;99.90
63960;DHT22;50136;51.374;0.096;2022-12-07T20:15:09;2.10;99.90
63960;DHT22;50136;51.374;0.096;2022-12-07T20:25:11;2.00;99.90
63960;DHT22;50136;51.374;0.096;2022-12-07T20:35:14;1.90;99.90
63960;DHT22;50136;51.374;0.096;2022-12-07T20:45:16;2.00;99.90
63960;DHT22;50136;51.374;0.096;2022-12-07T20:55:20;2.00;99.90
63960;DHT22;50136;51.374;0.096;2022-12-07T21:05:22;1.90;99.90
63960;DHT22;50136;51.374;0.096;2022-12-07T21:15:25;1.70;99.90
63960;DHT22;50136;51.374;0.096;2022-12-07T21:25:27;1.60;99.90
63960;DHT22;50136;51.374;0.096;2022-12-07T21:35:30;1.40;99.90
63960;DHT22;50136;51.374;0.096;2022-12-07T21:45:33;1.30;99.90
63960;DHT22;50136;51.374;0.096;2022-12-07T21:55:39;1.10;99.90
63960;DHT22;50136;51.374;0.096;2022-12-07T22:05:41;1.00;99.90
63960;DHT22;50136;51.374;0.096;2022-12-07T22:15:45;1.00;99.90
63960;DHT22;50136;51.374;0.096;2022-12-07T22:25:47;0.90;99.90
63960;DHT22;50136;51.374;0.096;2022-12-07T22:35:52;0.90;99.90
63960;DHT22;50136;51.374;0.096;2022-12-07T22:45:54;0.90;99.90
63960;DHT22;50136;51.374;0.096;2022-12-07T22:55:58;1.00;99.90
63960;DHT22;50136;51.374;0.096;2022-12-07T23:06:05;1.00;99.90
63960;DHT22;50136;51.374;0.096;2022-12-07T23:16:10;0.90;99.90
63960;DHT22;50136;51.374;0.096;2022-12-07T23:26:12;0.80;99.90
63960;DHT22;50136;51.374;0.096;2022-12-07T23:36:18;0.60;99.90
63960;DHT22;50136;51.374;0.096;2022-12-07T23:46:22;0.50;99.90
63960;DHT22;50136;51.374;0.096;2022-12-07T23:56:27;0.50;99.90
